Tri Cities Airport
KPSC : now visible

Airfield :











YOU CAN JOIN US ON...

 
LOGIN :

Register | Disclaimer

   EN    FR    IT 

 









Legend :    VFR   Marginal VFR   IFR   Intensive IFR   Very Intensive IFR
Visi :
Ceiling :
>= 8 km
>= 3000ft
5 to 8 km
1000 to 3000 ft
1500m to 5 km
500 to 1000 ft
800 to 1500m
200 to 500 ft
< 800m
< 200 ft
Symbols :   Thunderstorms  Fog  Heavy snow  Heavy precipitations  Wind > 20 kt






- Airport Elevation : 410 ft
- IATA code : PSC


KPSC - Tri Cities

CURRENT METAR :
  • 121853Z 12007KT 10SM FEW070 08/05 A3000 RMK AO2 SLP160 T00780050

EXPIRED METARs :
  • 121753Z 00000KT 10SM CLR 06/04 A3002 RMK AO2 SLP169 60000 T00610039 10061 20006 58000
  • 121722Z 00000KT 6SM BR FEW002 04/03 A3002 RMK AO2 T00390028
  • 121653Z 00000KT 1SM BR OVC002 03/02 A3003 RMK AO2 SNB06E37 SLP172 P0000 T00330022 RVRNO

TAF KPSC
Valid from the 12 at 18:00 until the 13 at 18:00 UTC


121737Z 1218/1318 VRB05KT P6SM FEW002 BKN150
TEMPO 1218/1219 4SM BR SCT002
FM122100 22014KT P6SM -SHRA BKN060 OVC100
FM130300 23016G26KT P6SM BKN120
FM131200 22011KT P6SM SCT050 BKN100



MET'MAP, your aeronautical weather chart ! - Copyright ORBIFLY December 2007 - Disclaimer

ORBIFLY MET'MAP TEAM :

Programming & Development : Alexandra Zaïnal
Concept & original design : Baudouin d'Aumeries
Assistance for programming : Marc-Olivier Méhu
Technical & hardware support : Manuel Goepfert

Contact : metmap@orbifly.com




SOURCES & CREDITS :

   NOAA       Earth
Advisory